HISTORICAL SENSOR DATA

Sensor Data Report

DB LIVE
CURRENT TIME--:--:--
DEVICE NETWORK Gateway Status
13 ESP · realtime ~1s · history 60s
Weather WS-MOD-01
ONLINE
Actuator ACT-MOD-01
OFFLINE
Mainboard L3 MB-L3-01
ONLINE
Mainboard L5 MB-L5-01
ONLINE
Remote AC AC-REMOTE-01
ONLINE
PZEM L3-01 PWR-L3-01
OFFLINE
PZEM L3-02 PWR-L3-02
OFFLINE
PZEM L3-03 PWR-L3-03
OFFLINE
PZEM L3-04 PWR-L3-04
OFFLINE
PZEM L5-01 PWR-L5-01
ONLINE
PZEM L5-02 PWR-L5-02
ONLINE
PZEM L5-03 PWR-L5-03
OFFLINE
PZEM L5-04 PWR-L5-04
OFFLINE
REPORT FILTER

Periode & Sensor

DATABASE HISTORY
RESET
QUICK RANGE Hari ini 7 hari 30 hari
PERIODE01 Sep 2026sampai 07 Sep 2026
TOTAL DATA95,871sensor readings
MINIMUM-0.50sesuai filter
AVERAGE73.18sesuai filter
MAXIMUM32,564.20sesuai filter
REPORT RESULT

Data Sensor

01/09/2026 — 07/09/2026 EXPORT CSV
NOTANGGALWAKTUDEVICECHANNELSENSORVALUEUNIT
301 07/09/2026 06:51:00 PWR-L5-02Power Meter L5 PZEM 02 PZEM-L5-02-PF PZEM L5-02 Power Factor 0.00
302 07/09/2026 06:51:00 WS-MOD-01Weather Station Module WS-DIR Arah Angin 47.50 °
303 07/09/2026 06:51:00 MB-L5-01Mainboard Lantai 5 L5-SHT-03-T SHT20 3 Temperature 28.40 °C
304 07/09/2026 06:51:00 MB-L3-01Mainboard Lantai 3 L3-RAD-02 Radiation 2 2.00 W/m²
305 07/09/2026 06:51:00 MB-L5-01Mainboard Lantai 5 L5-SHT-01-T SHT20 1 Temperature 28.20 °C
306 07/09/2026 06:51:00 MB-L5-01Mainboard Lantai 5 L5-SHT-02-RH SHT20 2 Humidity 45.80 %RH
307 07/09/2026 06:51:00 MB-L5-01Mainboard Lantai 5 L5-AI-03 Analog Input 3 3.05 V
308 07/09/2026 06:51:00 MB-L3-01Mainboard Lantai 3 L3-AI-05 Analog Input 5 3.12 V
309 07/09/2026 06:51:00 MB-L3-01Mainboard Lantai 3 L3-LUX-02 Illuminance / LUX 2 489.80 lux
310 07/09/2026 06:51:00 PWR-L5-01Power Meter L5 PZEM 01 PZEM-L5-01-CURR PZEM L5-01 Current 0.12 A
311 07/09/2026 06:51:00 MB-L5-01Mainboard Lantai 5 L5-BGT-02 Black Globe Temperature 2 26.40 °C
312 07/09/2026 06:51:00 PWR-L5-02Power Meter L5 PZEM 02 PZEM-L5-02-CURR PZEM L5-02 Current 0.00 A
313 07/09/2026 06:51:00 MB-L5-01Mainboard Lantai 5 L5-AI-06 Analog Input 6 3.05 V
314 07/09/2026 06:51:00 MB-L3-01Mainboard Lantai 3 L3-SHT-02-T SHT20 2 Temperature 28.30 °C
315 07/09/2026 06:51:00 MB-L3-01Mainboard Lantai 3 L3-SHT-01-T SHT20 1 Temperature 28.40 °C
316 07/09/2026 06:51:00 MB-L5-01Mainboard Lantai 5 L5-RAD-02 Radiation 2 3.00 W/m²
317 07/09/2026 06:51:00 AC-REMOTE-01Remote AC AC-SETPOINT AC Set Temperature 23.00 °C
318 07/09/2026 06:51:00 MB-L3-01Mainboard Lantai 3 L3-LUX-05 Illuminance / LUX 5 2,652.10 lux
319 07/09/2026 06:51:00 WS-MOD-01Weather Station Module WS-WIND Kecepatan Angin 12.03 m/s
320 07/09/2026 06:51:00 MB-L5-01Mainboard Lantai 5 L5-HFT-01 Heat Flow Temperature 1 24.10 °C
321 07/09/2026 06:51:00 MB-L5-01Mainboard Lantai 5 L5-LUX-04 Illuminance / LUX 4 329.70 lux
322 07/09/2026 06:51:00 MB-L3-01Mainboard Lantai 3 L3-AI-03 Analog Input 3 3.12 V
323 07/09/2026 06:51:00 PWR-L5-01Power Meter L5 PZEM 01 PZEM-L5-01-POWER PZEM L5-01 Active Power 10.80 W
324 07/09/2026 06:51:00 MB-L5-01Mainboard Lantai 5 L5-RAD-01 Radiation 1 2.00 W/m²
325 07/09/2026 06:51:00 MB-L5-01Mainboard Lantai 5 L5-AI-01 Analog Input 1 3.05 V
326 07/09/2026 06:51:00 PWR-L5-02Power Meter L5 PZEM 02 PZEM-L5-02-FREQ PZEM L5-02 Frequency 50.00 Hz
327 07/09/2026 06:51:00 MB-L5-01Mainboard Lantai 5 L5-LUX-02 Illuminance / LUX 2 1,618.30 lux
328 07/09/2026 06:51:00 MB-L5-01Mainboard Lantai 5 L5-LUX-05 Illuminance / LUX 5 1,043.70 lux
329 07/09/2026 06:51:00 PWR-L5-01Power Meter L5 PZEM 01 PZEM-L5-01-ENERGY PZEM L5-01 Energy 0.13 kWh
330 07/09/2026 06:51:00 WS-MOD-01Weather Station Module WS-PRES Tekanan Udara 912.00 hPa
331 07/09/2026 06:51:00 MB-L3-01Mainboard Lantai 3 L3-LUX-04 Illuminance / LUX 4 325.40 lux
332 07/09/2026 06:51:00 MB-L3-01Mainboard Lantai 3 L3-AI-01 Analog Input 1 3.12 V
333 07/09/2026 06:51:00 PWR-L5-02Power Meter L5 PZEM 02 PZEM-L5-02-VOLT PZEM L5-02 Voltage 224.60 V
334 07/09/2026 06:51:00 AC-REMOTE-01Remote AC AC-POWER AC Power State 1.00 state
335 07/09/2026 06:51:00 MB-L5-01Mainboard Lantai 5 L5-AI-04 Analog Input 4 3.05 V
336 07/09/2026 06:51:00 MB-L3-01Mainboard Lantai 3 L3-SHT-03-RH SHT20 3 Humidity 46.10 %RH
337 07/09/2026 06:51:00 MB-L3-01Mainboard Lantai 3 L3-SHT-02-RH SHT20 2 Humidity 46.10 %RH
338 07/09/2026 06:51:00 MB-L3-01Mainboard Lantai 3 L3-AI-06 Analog Input 6 3.12 V
339 07/09/2026 06:50:00 MB-L5-01Mainboard Lantai 5 L5-BGT-01 Black Globe Temperature 1 26.50 °C
340 07/09/2026 06:50:00 AC-REMOTE-01Remote AC AC-FAN AC Fan Speed 0.00 code
341 07/09/2026 06:50:00 MB-L3-01Mainboard Lantai 3 L3-LUX-01 Illuminance / LUX 1 319.10 lux
342 07/09/2026 06:50:00 MB-L5-01Mainboard Lantai 5 L5-AI-05 Analog Input 5 3.05 V
343 07/09/2026 06:50:00 MB-L3-01Mainboard Lantai 3 L3-AI-02 Analog Input 2 3.12 V
344 07/09/2026 06:50:00 MB-L5-01Mainboard Lantai 5 L5-SHT-01-RH SHT20 1 Humidity 46.50 %RH
345 07/09/2026 06:50:00 PWR-L5-02Power Meter L5 PZEM 02 PZEM-L5-02-POWER PZEM L5-02 Active Power 0.00 W
346 07/09/2026 06:50:00 MB-L5-01Mainboard Lantai 5 L5-ST-02 Surface Temperature 2 23.60 °C
347 07/09/2026 06:50:00 MB-L3-01Mainboard Lantai 3 L3-SHT-01-RH SHT20 1 Humidity 45.80 %RH
348 07/09/2026 06:50:00 MB-L3-01Mainboard Lantai 3 L3-LUX-03 Illuminance / LUX 3 545.40 lux
349 07/09/2026 06:50:00 PWR-L5-01Power Meter L5 PZEM 01 PZEM-L5-01-VOLT PZEM L5-01 Voltage 224.70 V
350 07/09/2026 06:50:00 MB-L3-01Mainboard Lantai 3 L3-LUX-06 Illuminance / LUX 6 841.60 lux
351 07/09/2026 06:50:00 MB-L3-01Mainboard Lantai 3 L3-SHT-03-T SHT20 3 Temperature 28.20 °C
352 07/09/2026 06:50:00 MB-L5-01Mainboard Lantai 5 L5-SHT-02-T SHT20 2 Temperature 28.40 °C
353 07/09/2026 06:50:00 WS-MOD-01Weather Station Module WS-TEMP Suhu Udara 19.30 °C
354 07/09/2026 06:50:00 MB-L5-01Mainboard Lantai 5 L5-SHT-03-RH SHT20 3 Humidity 46.30 %RH
355 07/09/2026 06:50:00 AC-REMOTE-01Remote AC AC-MODE AC Operating Mode 1.00 code
356 07/09/2026 06:50:00 MB-L5-01Mainboard Lantai 5 L5-LUX-03 Illuminance / LUX 3 506.70 lux
357 07/09/2026 06:50:00 PWR-L5-02Power Meter L5 PZEM 02 PZEM-L5-02-PF PZEM L5-02 Power Factor 0.00
358 07/09/2026 06:50:00 WS-MOD-01Weather Station Module WS-DIR Arah Angin 72.20 °
359 07/09/2026 06:50:00 MB-L5-01Mainboard Lantai 5 L5-SHT-03-T SHT20 3 Temperature 28.30 °C
360 07/09/2026 06:50:00 MB-L3-01Mainboard Lantai 3 L3-RAD-02 Radiation 2 2.00 W/m²
361 07/09/2026 06:50:00 MB-L5-01Mainboard Lantai 5 L5-SHT-01-T SHT20 1 Temperature 28.10 °C
362 07/09/2026 06:50:00 MB-L5-01Mainboard Lantai 5 L5-SHT-02-RH SHT20 2 Humidity 45.90 %RH
363 07/09/2026 06:50:00 MB-L5-01Mainboard Lantai 5 L5-AI-03 Analog Input 3 3.05 V
364 07/09/2026 06:50:00 MB-L3-01Mainboard Lantai 3 L3-AI-05 Analog Input 5 3.12 V
365 07/09/2026 06:50:00 MB-L3-01Mainboard Lantai 3 L3-LUX-02 Illuminance / LUX 2 478.10 lux
366 07/09/2026 06:50:00 PWR-L5-01Power Meter L5 PZEM 01 PZEM-L5-01-CURR PZEM L5-01 Current 0.12 A
367 07/09/2026 06:50:00 MB-L5-01Mainboard Lantai 5 L5-BGT-02 Black Globe Temperature 2 26.30 °C
368 07/09/2026 06:50:00 PWR-L5-02Power Meter L5 PZEM 02 PZEM-L5-02-CURR PZEM L5-02 Current 0.00 A
369 07/09/2026 06:50:00 MB-L5-01Mainboard Lantai 5 L5-AI-06 Analog Input 6 3.05 V
370 07/09/2026 06:50:00 MB-L3-01Mainboard Lantai 3 L3-SHT-02-T SHT20 2 Temperature 28.30 °C
371 07/09/2026 06:50:00 MB-L3-01Mainboard Lantai 3 L3-SHT-01-T SHT20 1 Temperature 28.30 °C
372 07/09/2026 06:50:00 MB-L5-01Mainboard Lantai 5 L5-RAD-02 Radiation 2 3.00 W/m²
373 07/09/2026 06:50:00 AC-REMOTE-01Remote AC AC-SETPOINT AC Set Temperature 23.00 °C
374 07/09/2026 06:50:00 MB-L3-01Mainboard Lantai 3 L3-LUX-05 Illuminance / LUX 5 2,548.20 lux
375 07/09/2026 06:50:00 WS-MOD-01Weather Station Module WS-WIND Kecepatan Angin 10.07 m/s
376 07/09/2026 06:50:00 MB-L5-01Mainboard Lantai 5 L5-HFT-01 Heat Flow Temperature 1 23.90 °C
377 07/09/2026 06:50:00 MB-L5-01Mainboard Lantai 5 L5-LUX-04 Illuminance / LUX 4 322.90 lux
378 07/09/2026 06:50:00 MB-L3-01Mainboard Lantai 3 L3-AI-03 Analog Input 3 3.12 V
379 07/09/2026 06:50:00 PWR-L5-01Power Meter L5 PZEM 01 PZEM-L5-01-POWER PZEM L5-01 Active Power 10.60 W
380 07/09/2026 06:50:00 MB-L5-01Mainboard Lantai 5 L5-RAD-01 Radiation 1 2.00 W/m²
381 07/09/2026 06:50:00 MB-L5-01Mainboard Lantai 5 L5-AI-01 Analog Input 1 3.05 V
382 07/09/2026 06:50:00 PWR-L5-02Power Meter L5 PZEM 02 PZEM-L5-02-FREQ PZEM L5-02 Frequency 49.90 Hz
383 07/09/2026 06:50:00 MB-L5-01Mainboard Lantai 5 L5-LUX-02 Illuminance / LUX 2 1,582.50 lux
384 07/09/2026 06:50:00 PWR-L5-01Power Meter L5 PZEM 01 PZEM-L5-01-ENERGY PZEM L5-01 Energy 0.13 kWh
385 07/09/2026 06:50:00 WS-MOD-01Weather Station Module WS-PRES Tekanan Udara 912.00 hPa
386 07/09/2026 06:50:00 MB-L3-01Mainboard Lantai 3 L3-LUX-04 Illuminance / LUX 4 317.00 lux
387 07/09/2026 06:50:00 MB-L3-01Mainboard Lantai 3 L3-AI-01 Analog Input 1 3.12 V
388 07/09/2026 06:50:00 PWR-L5-02Power Meter L5 PZEM 02 PZEM-L5-02-VOLT PZEM L5-02 Voltage 224.60 V
389 07/09/2026 06:50:00 AC-REMOTE-01Remote AC AC-POWER AC Power State 1.00 state
390 07/09/2026 06:50:00 MB-L5-01Mainboard Lantai 5 L5-AI-04 Analog Input 4 3.05 V
391 07/09/2026 06:50:00 MB-L3-01Mainboard Lantai 3 L3-SHT-03-RH SHT20 3 Humidity 46.00 %RH
392 07/09/2026 06:50:00 MB-L3-01Mainboard Lantai 3 L3-SHT-02-RH SHT20 2 Humidity 46.00 %RH
393 07/09/2026 06:50:00 MB-L3-01Mainboard Lantai 3 L3-AI-06 Analog Input 6 3.12 V
394 07/09/2026 06:50:00 MB-L3-01Mainboard Lantai 3 L3-RAD-01 Radiation 1 2.00 W/m²
395 07/09/2026 06:50:00 MB-L5-01Mainboard Lantai 5 L5-BGT-03 Black Globe Temperature 3 26.20 °C
396 07/09/2026 06:50:00 PWR-L5-01Power Meter L5 PZEM 01 PZEM-L5-01-FREQ PZEM L5-01 Frequency 50.00 Hz
397 07/09/2026 06:50:00 PWR-L5-02Power Meter L5 PZEM 02 PZEM-L5-02-ENERGY PZEM L5-02 Energy 0.04 kWh
398 07/09/2026 06:50:00 MB-L5-01Mainboard Lantai 5 L5-ST-01 Surface Temperature 1 24.10 °C
399 07/09/2026 06:50:00 MB-L5-01Mainboard Lantai 5 L5-LUX-01 Illuminance / LUX 1 356.30 lux
400 07/09/2026 06:50:00 MB-L5-01Mainboard Lantai 5 L5-HFT-02 Heat Flow Temperature 2 23.50 °C
Menampilkan maksimal 100 data per halaman